createdAt,value
2023-03-27T00:00:55.849Z,97634.53
2023-03-27T00:03:24.436Z,97633.34
2023-03-27T00:06:13.817Z,97626.09
2023-03-27T00:08:40.325Z,97625.31
2023-03-27T00:11:07.081Z,97626.31
2023-03-27T00:13:34.005Z,97623.31
2023-03-27T00:16:00.770Z,97624.63
2023-03-27T00:18:28.438Z,97624.88
2023-03-27T00:20:58.024Z,97616.69
2023-03-27T00:23:25.346Z,97615.75
2023-03-27T00:25:52.224Z,97614.38
2023-03-27T00:28:18.856Z,97618.00
2023-03-27T00:30:45.395Z,97613.56
2023-03-27T00:33:12.784Z,97612.41
2023-03-27T00:35:44.369Z,97612.78
2023-03-27T00:38:10.866Z,97611.84
2023-03-27T00:40:37.858Z,97613.22
2023-03-27T00:43:22.554Z,97609.38
2023-03-27T00:45:52.694Z,97612.34
2023-03-27T00:48:19.714Z,97608.13
2023-03-27T00:50:48.228Z,97607.47
2023-03-27T00:53:18.119Z,97619.19
2023-03-27T00:55:49.107Z,97616.00
2023-03-27T00:58:46.887Z,97616.16
2023-03-27T01:01:15.887Z,97613.75
2023-03-27T01:03:45.658Z,97600.94
2023-03-27T01:06:14.843Z,97613.75
2023-03-27T01:08:43.941Z,97610.13
2023-03-27T01:11:31.374Z,97618.84
2023-03-27T01:14:22.712Z,97621.09
2023-03-27T01:17:13.340Z,97623.06
2023-03-27T01:19:48.847Z,97614.66
2023-03-27T01:23:06.561Z,97622.91
2023-03-27T01:25:41.739Z,97621.78
2023-03-27T01:28:42.819Z,97625.13
2023-03-27T01:31:09.252Z,97618.44
2023-03-27T01:34:07.696Z,97615.72
2023-03-27T01:36:47.420Z,97618.66
2023-03-27T01:39:36.170Z,97618.91
2023-03-27T01:42:08.593Z,97618.75
2023-03-27T01:45:01.787Z,97611.97
2023-03-27T01:47:40.150Z,97620.53
2023-03-27T01:50:21.813Z,97623.84
2023-03-27T01:53:00.124Z,97628.50
2023-03-27T01:55:31.551Z,97636.81
2023-03-27T01:58:14.703Z,97634.38
2023-03-27T02:00:51.406Z,97632.75
2023-03-27T02:03:48.812Z,97625.72
2023-03-27T02:06:23.880Z,97625.94
2023-03-27T02:08:59.423Z,97628.75
2023-03-27T02:11:41.350Z,97628.75
2023-03-27T02:14:16.353Z,97630.13
2023-03-27T02:16:48.154Z,97629.13
2023-03-27T02:19:22.292Z,97631.78
2023-03-27T02:21:49.330Z,97619.19
2023-03-27T02:24:19.855Z,97650.53
2023-03-27T02:26:50.819Z,97624.19
2023-03-27T02:30:02.243Z,97625.22
2023-03-27T02:32:53.360Z,97623.84
2023-03-27T02:35:55.896Z,97620.28
2023-03-27T02:38:56.755Z,97628.28
2023-03-27T02:41:50.862Z,97630.31
2023-03-27T02:44:48.252Z,97624.13
2023-03-27T02:47:36.230Z,97625.38
2023-03-27T02:50:17.979Z,97615.03
2023-03-27T02:52:50.235Z,97620.53
2023-03-27T02:55:46.020Z,97630.59
2023-03-27T02:58:22.197Z,97631.81
2023-03-27T03:00:50.691Z,97632.22
2023-03-27T03:03:23.997Z,97630.22
2023-03-27T03:05:50.489Z,97627.63
2023-03-27T03:08:16.991Z,97627.75
2023-03-27T03:10:45.070Z,97619.72
2023-03-27T03:13:11.769Z,97617.22
2023-03-27T03:15:39.175Z,97629.22
2023-03-27T03:18:06.060Z,97631.81
2023-03-27T03:20:32.744Z,97635.22
2023-03-27T03:22:59.212Z,97627.78
2023-03-27T03:25:25.946Z,97626.75
2023-03-27T03:27:52.715Z,97629.72
2023-03-27T03:30:19.301Z,97628.28
2023-03-27T03:32:45.982Z,97627.88
2023-03-27T03:35:12.482Z,97631.44
2023-03-27T03:37:39.047Z,97626.78
2023-03-27T03:40:10.015Z,97641.31
2023-03-27T03:42:36.477Z,97635.88
2023-03-27T03:45:02.980Z,97634.81
2023-03-27T03:47:29.627Z,97629.91
2023-03-27T03:49:56.105Z,97632.84
2023-03-27T03:52:22.553Z,97627.00
2023-03-27T03:54:49.119Z,97625.78
2023-03-27T03:57:15.702Z,97630.13
2023-03-27T03:59:42.404Z,97633.09
2023-03-27T04:02:09.040Z,97635.25
2023-03-27T04:04:35.504Z,97633.91
2023-03-27T04:07:01.956Z,97633.22
2023-03-27T04:09:29.102Z,97635.63
2023-03-27T04:11:55.585Z,97629.56
2023-03-27T04:14:22.267Z,97631.56
2023-03-27T04:16:48.851Z,97639.34
2023-03-27T04:19:15.313Z,97634.50
2023-03-27T04:21:41.783Z,97634.28
2023-03-27T04:24:08.322Z,97641.56
2023-03-27T04:26:34.986Z,97635.56
2023-03-27T04:29:01.518Z,97644.41
2023-03-27T04:31:28.131Z,97644.03
2023-03-27T04:33:54.644Z,97642.44
2023-03-27T04:36:21.472Z,97643.06
2023-03-27T04:38:48.094Z,97642.38
2023-03-27T04:41:14.704Z,97635.84
2023-03-27T04:43:41.312Z,97637.75
2023-03-27T04:46:08.255Z,97633.91
2023-03-27T04:48:35.441Z,97638.84
2023-03-27T04:51:01.928Z,97635.88
2023-03-27T04:53:28.482Z,97631.88
2023-03-27T04:55:54.949Z,97643.03
2023-03-27T04:58:21.421Z,97639.00
2023-03-27T05:00:48.018Z,97641.91
2023-03-27T05:03:14.568Z,97653.78
2023-03-27T05:05:41.082Z,97657.22
2023-03-27T05:08:07.594Z,97659.94
2023-03-27T05:10:34.086Z,97658.84
2023-03-27T05:13:00.975Z,97658.34
2023-03-27T05:15:27.608Z,97655.22
2023-03-27T05:17:54.353Z,97667.56
2023-03-27T05:20:21.675Z,97654.00
2023-03-27T05:22:48.976Z,97662.31
2023-03-27T05:25:15.746Z,97658.19
2023-03-27T05:27:50.046Z,97657.03
2023-03-27T05:30:19.075Z,97682.81
2023-03-27T05:32:47.614Z,97662.13
2023-03-27T05:35:15.773Z,97654.00
2023-03-27T05:37:45.733Z,97660.94
2023-03-27T05:40:12.472Z,97666.94
2023-03-27T05:42:43.092Z,97662.75
2023-03-27T05:45:10.058Z,97671.16
2023-03-27T05:47:48.266Z,97664.88
2023-03-27T05:50:16.295Z,97664.78
2023-03-27T05:52:42.795Z,97676.38
2023-03-27T05:55:09.795Z,97667.16
2023-03-27T05:57:39.923Z,97671.03
2023-03-27T06:00:09.511Z,97674.81
2023-03-27T06:02:36.208Z,97673.41
2023-03-27T06:05:02.753Z,97668.50
2023-03-27T06:07:29.221Z,97670.94
2023-03-27T06:09:55.734Z,97666.09
2023-03-27T06:12:22.356Z,97667.19
2023-03-27T06:14:49.708Z,97667.06
2023-03-27T06:17:16.321Z,97672.97
2023-03-27T06:19:42.846Z,97669.19
2023-03-27T06:22:09.305Z,97665.94
2023-03-27T06:24:35.829Z,97668.28
2023-03-27T06:27:02.317Z,97667.50
2023-03-27T06:29:28.790Z,97675.81
2023-03-27T06:31:55.692Z,97682.13
2023-03-27T06:34:22.169Z,97676.94
2023-03-27T06:36:48.680Z,97680.16
2023-03-27T06:39:16.389Z,97682.25
2023-03-27T06:41:42.848Z,97683.69
2023-03-27T06:44:09.417Z,97678.22
2023-03-27T06:46:45.154Z,97678.72
2023-03-27T06:49:12.339Z,97678.69
2023-03-27T06:51:38.993Z,97677.59
2023-03-27T06:54:05.574Z,97682.75
2023-03-27T06:56:32.107Z,97690.00
2023-03-27T06:58:58.819Z,97685.28
2023-03-27T07:01:25.372Z,97683.38
2023-03-27T07:03:51.886Z,97687.13
2023-03-27T07:06:18.421Z,97685.66
2023-03-27T07:08:46.534Z,97688.84
2023-03-27T07:11:14.309Z,97691.47
2023-03-27T07:13:41.015Z,97693.06
2023-03-27T07:16:09.795Z,97688.94
2023-03-27T07:18:39.555Z,97683.38
2023-03-27T07:21:06.386Z,97688.69
2023-03-27T07:23:32.846Z,97679.75
2023-03-27T07:26:00.567Z,97685.25
2023-03-27T07:28:27.260Z,97677.75
2023-03-27T07:30:53.775Z,97676.84
2023-03-27T07:33:20.485Z,97680.91
2023-03-27T07:35:47.963Z,97678.00
2023-03-27T07:38:14.718Z,97681.88
2023-03-27T07:40:44.463Z,97671.47
2023-03-27T07:43:11.072Z,97684.47
2023-03-27T07:45:37.803Z,97676.06
2023-03-27T07:48:06.220Z,97670.66
2023-03-27T07:50:32.773Z,97674.75
2023-03-27T07:52:59.322Z,97680.34
2023-03-27T07:55:25.848Z,97682.75
2023-03-27T08:00:22.019Z,97683.63
2023-03-27T08:02:49.182Z,97683.91
2023-03-27T08:05:17.227Z,97686.06
2023-03-27T08:07:43.996Z,97687.38
2023-03-27T08:10:11.319Z,97689.81
2023-03-27T08:12:38.213Z,97693.75
2023-03-27T08:15:06.727Z,97688.00
2023-03-27T08:17:33.565Z,97692.47
2023-03-27T08:20:00.400Z,97695.41
2023-03-27T08:22:26.874Z,97691.97
2023-03-27T08:24:53.321Z,97697.44
2023-03-27T08:27:19.949Z,97697.47
2023-03-27T08:29:46.454Z,97706.44
2023-03-27T08:32:13.021Z,97702.59
2023-03-27T08:34:39.658Z,97709.66
2023-03-27T08:37:07.552Z,97696.88
2023-03-27T08:39:34.288Z,97705.63
2023-03-27T08:42:04.717Z,97710.66
2023-03-27T08:44:33.031Z,97697.50
2023-03-27T08:47:28.000Z,97709.03
2023-03-27T08:49:58.670Z,97706.97
2023-03-27T08:52:28.707Z,97707.53
2023-03-27T08:55:07.652Z,97712.09
2023-03-27T08:57:34.289Z,97719.59
2023-03-27T09:00:01.188Z,97711.75
2023-03-27T09:02:45.799Z,97714.28
2023-03-27T09:05:23.436Z,97706.94
2023-03-27T09:07:59.746Z,97703.69
2023-03-27T09:10:33.536Z,97711.72
2023-03-27T09:13:03.264Z,97712.25
2023-03-27T09:15:36.826Z,97718.31
2023-03-27T09:18:11.252Z,97708.53
2023-03-27T09:21:02.429Z,97708.81
2023-03-27T09:23:35.910Z,97706.69
2023-03-27T09:26:10.613Z,97700.16
2023-03-27T09:28:48.599Z,97699.97
2023-03-27T09:31:21.435Z,97700.91
2023-03-27T09:33:48.094Z,97705.88
2023-03-27T09:36:14.677Z,97698.84
2023-03-27T09:38:47.769Z,97711.69
2023-03-27T09:41:17.628Z,97713.28
2023-03-27T09:44:02.214Z,97710.41
2023-03-27T09:46:29.197Z,97711.38
2023-03-27T09:49:11.791Z,97720.41
2023-03-27T09:51:42.911Z,97718.06
2023-03-27T09:54:10.864Z,97723.53
2023-03-27T09:57:04.180Z,97727.03
2023-03-27T09:59:36.844Z,97719.88
2023-03-27T10:02:18.856Z,97714.91
2023-03-27T10:05:04.715Z,97719.13
2023-03-27T10:07:31.280Z,97732.47
2023-03-27T10:10:09.382Z,97731.34
2023-03-27T10:12:37.402Z,97739.25
2023-03-27T10:15:06.651Z,97735.34
2023-03-27T10:17:38.872Z,97733.59
2023-03-27T10:20:12.835Z,97734.09
2023-03-27T10:22:54.708Z,97723.81
2023-03-27T10:25:29.132Z,97737.91
2023-03-27T10:28:17.568Z,97735.50
2023-03-27T10:30:44.828Z,97735.00
2023-03-27T10:33:11.463Z,97732.63
2023-03-27T10:35:43.018Z,97736.59
2023-03-27T10:38:15.456Z,97737.13
2023-03-27T10:40:47.678Z,97731.31
2023-03-27T10:43:30.548Z,97727.88
2023-03-27T10:46:01.600Z,97728.13
2023-03-27T10:48:49.676Z,97738.69
2023-03-27T10:51:43.001Z,97732.09
2023-03-27T10:54:23.085Z,97732.88
2023-03-27T10:57:15.795Z,97732.22
2023-03-27T10:59:45.370Z,97722.31
2023-03-27T11:02:34.901Z,97723.69
2023-03-27T11:05:07.348Z,97730.03
2023-03-27T11:07:39.682Z,97740.66
2023-03-27T11:10:24.718Z,97745.66
2023-03-27T11:13:08.517Z,97743.84
2023-03-27T11:15:48.230Z,97749.44
2023-03-27T11:18:25.647Z,97753.38
2023-03-27T11:20:57.368Z,97761.78
2023-03-27T11:23:32.724Z,97765.25
2023-03-27T11:26:02.837Z,97774.81
2023-03-27T11:28:43.733Z,97764.31
2023-03-27T11:31:11.861Z,97765.13
2023-03-27T11:33:49.568Z,97769.88
2023-03-27T11:36:18.744Z,97779.09
2023-03-27T11:39:02.155Z,97773.84
2023-03-27T11:41:28.988Z,97780.16
2023-03-27T11:43:55.511Z,97778.53
2023-03-27T11:46:46.026Z,97783.56
2023-03-27T11:49:15.521Z,97784.88
2023-03-27T11:51:59.976Z,97781.44
2023-03-27T11:54:50.265Z,97773.75
2023-03-27T11:57:25.130Z,97775.84
2023-03-27T12:00:13.199Z,97776.47
2023-03-27T12:02:57.549Z,97768.81
2023-03-27T12:05:59.038Z,97781.38
2023-03-27T12:08:36.760Z,97781.06
2023-03-27T12:11:07.008Z,97780.81
2023-03-27T12:14:01.092Z,97783.19
2023-03-27T12:16:53.962Z,97782.81
2023-03-27T12:19:28.885Z,97774.06
2023-03-27T12:22:09.316Z,97792.72
2023-03-27T12:25:00.139Z,97803.31
2023-03-27T12:27:32.497Z,97796.81
2023-03-27T12:30:04.898Z,97809.84
2023-03-27T12:33:02.473Z,97810.91
2023-03-27T12:35:52.123Z,97808.69
2023-03-27T12:38:18.589Z,97805.84
2023-03-27T12:41:00.635Z,97809.66
2023-03-27T12:43:32.398Z,97814.13
2023-03-27T12:46:23.483Z,97813.25
2023-03-27T12:48:50.084Z,97807.69
2023-03-27T12:51:16.619Z,97804.25
2023-03-27T12:53:48.138Z,97810.41
2023-03-27T12:56:17.376Z,97814.81
2023-03-27T12:58:49.330Z,97822.75
2023-03-27T13:01:51.635Z,97823.06
2023-03-27T13:04:56.060Z,97834.06
2023-03-27T13:07:31.651Z,97843.66
2023-03-27T13:10:01.270Z,97844.72
2023-03-27T13:12:45.016Z,97839.97
2023-03-27T13:15:26.751Z,97848.13
2023-03-27T13:18:34.641Z,97853.69
2023-03-27T13:21:23.032Z,97861.53
2023-03-27T13:23:59.903Z,97882.47
2023-03-27T13:26:43.358Z,97880.53
2023-03-27T13:29:16.771Z,97904.66
2023-03-27T13:31:46.197Z,97899.91
2023-03-27T13:34:40.261Z,97895.84
2023-03-27T13:37:09.617Z,97894.44
2023-03-27T13:39:47.099Z,97890.66
2023-03-27T13:42:20.847Z,97890.25
2023-03-27T13:45:00.007Z,97884.16
2023-03-27T13:48:01.264Z,97889.31
2023-03-27T13:50:59.289Z,97890.81
2023-03-27T13:54:02.631Z,97895.13
2023-03-27T13:56:52.324Z,97899.56
2023-03-27T13:59:28.014Z,97903.28
2023-03-27T14:02:11.260Z,97904.00
2023-03-27T14:04:52.669Z,97908.00
2023-03-27T14:07:52.235Z,97908.94
2023-03-27T14:10:27.731Z,97914.66
2023-03-27T14:13:13.338Z,97921.47
2023-03-27T14:16:05.439Z,97915.63
2023-03-27T14:19:07.792Z,97922.00
2023-03-27T14:21:57.333Z,97928.69
2023-03-27T14:24:40.601Z,97937.53
2023-03-27T14:27:13.885Z,97931.50
2023-03-27T14:29:40.385Z,97943.84
2023-03-27T14:32:15.581Z,97931.88
2023-03-27T14:37:32.552Z,97943.22
2023-03-27T14:39:59.851Z,97948.72
2023-03-27T14:42:32.062Z,97951.00
2023-03-27T14:45:20.662Z,97950.47
2023-03-27T14:47:54.868Z,97975.28
2023-03-27T14:50:22.086Z,97972.31
2023-03-27T14:52:58.421Z,97980.72
2023-03-27T14:55:30.172Z,97978.19
2023-03-27T14:57:59.968Z,97985.38
2023-03-27T15:00:30.418Z,97989.63
2023-03-27T15:03:03.535Z,97994.19
2023-03-27T15:05:30.184Z,97996.91
2023-03-27T15:07:56.744Z,97994.81
2023-03-27T15:10:31.208Z,98001.03
2023-03-27T15:12:58.046Z,98005.63
2023-03-27T15:15:39.901Z,98000.81
2023-03-27T15:18:15.110Z,98009.38
2023-03-27T15:20:43.453Z,98016.94
2023-03-27T15:23:44.585Z,98017.72
2023-03-27T15:26:28.128Z,98019.34
2023-03-27T15:29:01.151Z,98024.75
2023-03-27T15:31:29.134Z,98028.47
2023-03-27T15:34:00.784Z,98033.22
2023-03-27T15:36:28.672Z,98044.38
2023-03-27T15:38:58.910Z,98047.25
2023-03-27T15:41:28.047Z,98049.22
2023-03-27T15:44:13.068Z,98055.81
2023-03-27T15:46:53.698Z,98055.56
2023-03-27T15:49:21.878Z,98061.91
2023-03-27T15:51:48.752Z,98069.34
2023-03-27T15:54:33.664Z,98068.13
2023-03-27T15:57:09.758Z,98081.06
2023-03-27T15:59:52.755Z,98089.00
2023-03-27T16:02:23.727Z,98098.59
2023-03-27T16:04:53.393Z,98132.75
2023-03-27T16:07:33.124Z,98107.03
2023-03-27T16:10:01.705Z,98108.78
2023-03-27T16:12:50.414Z,98107.47
2023-03-27T16:15:32.605Z,98121.13
2023-03-27T16:18:02.978Z,98123.63
2023-03-27T16:20:35.280Z,98123.13
2023-03-27T16:23:01.759Z,98131.47
2023-03-27T16:25:28.264Z,98130.81
2023-03-27T16:27:55.066Z,98129.50
2023-03-27T16:30:33.852Z,98138.06
2023-03-27T16:33:00.609Z,98140.38
2023-03-27T16:35:28.457Z,98145.28
2023-03-27T16:37:55.083Z,98150.00
2023-03-27T16:40:21.608Z,98152.06
2023-03-27T16:42:49.046Z,98152.50
2023-03-27T16:45:15.533Z,98147.72
2023-03-27T16:47:42.086Z,98154.38
2023-03-27T16:50:16.669Z,98161.59
2023-03-27T16:52:43.160Z,98166.78
2023-03-27T16:55:09.737Z,98169.78
2023-03-27T16:57:36.337Z,98165.78
2023-03-27T17:00:04.215Z,98167.56
2023-03-27T17:02:32.032Z,98177.56
2023-03-27T17:05:00.776Z,98178.75
2023-03-27T17:07:27.309Z,98183.34
2023-03-27T17:09:53.869Z,98189.78
2023-03-27T17:12:20.367Z,98190.34
2023-03-27T17:17:13.330Z,98200.53
2023-03-27T17:19:39.895Z,98197.72
2023-03-27T17:22:06.395Z,98197.91
2023-03-27T17:24:36.074Z,98205.09
2023-03-27T17:27:09.370Z,98208.28
2023-03-27T17:29:35.841Z,98208.06
2023-03-27T17:32:02.350Z,98206.03
2023-03-27T17:34:29.324Z,98210.81
2023-03-27T17:36:55.809Z,98214.47
2023-03-27T17:39:23.497Z,98218.84
2023-03-27T17:41:50.224Z,98210.81
2023-03-27T17:44:16.688Z,98219.03
2023-03-27T17:46:43.428Z,98217.81
2023-03-27T17:49:10.530Z,98220.44
2023-03-27T17:51:37.163Z,98228.41
2023-03-27T17:54:03.722Z,98230.22
2023-03-27T17:56:30.436Z,98227.81
2023-03-27T17:58:56.982Z,98227.59
2023-03-27T18:01:24.580Z,98230.38
2023-03-27T18:03:51.438Z,98240.53
2023-03-27T18:06:18.319Z,98235.53
2023-03-27T18:08:46.233Z,98247.94
2023-03-27T18:11:14.664Z,98240.47
2023-03-27T18:13:41.279Z,98247.78
2023-03-27T18:16:09.076Z,98248.53
2023-03-27T18:18:35.840Z,98253.50
2023-03-27T18:21:02.509Z,98267.91
2023-03-27T18:23:28.998Z,98260.94
2023-03-27T18:25:55.790Z,98272.94
2023-03-27T18:28:22.614Z,98272.94
2023-03-27T18:31:01.595Z,98279.13
2023-03-27T18:33:30.093Z,98276.75
2023-03-27T18:35:57.581Z,98285.78
2023-03-27T18:38:26.065Z,98281.81
2023-03-27T18:40:52.880Z,98285.03
2023-03-27T18:43:19.581Z,98291.47
2023-03-27T18:45:46.507Z,98292.47
2023-03-27T18:48:13.071Z,98300.03
2023-03-27T18:50:39.580Z,98305.22
2023-03-27T18:53:06.371Z,98308.25
2023-03-27T18:55:32.850Z,98308.19
2023-03-27T18:57:59.302Z,98317.75
2023-03-27T19:00:26.028Z,98324.13
2023-03-27T19:02:52.591Z,98321.94
2023-03-27T19:05:19.183Z,98319.03
2023-03-27T19:07:45.688Z,98322.81
2023-03-27T19:10:12.184Z,98323.00
2023-03-27T19:12:38.631Z,98334.94
2023-03-27T19:15:17.302Z,98337.53
2023-03-27T19:17:46.160Z,98332.72
2023-03-27T19:20:12.706Z,98336.94
2023-03-27T19:22:39.180Z,98332.53
2023-03-27T19:25:06.123Z,98332.72
2023-03-27T19:27:39.101Z,98341.50
2023-03-27T19:30:08.162Z,98341.47
2023-03-27T19:32:34.800Z,98349.69
2023-03-27T19:35:01.694Z,98343.66
2023-03-27T19:37:28.294Z,98345.00
2023-03-27T19:39:54.796Z,98338.75
2023-03-27T19:42:21.313Z,98337.31
2023-03-27T19:44:47.774Z,98333.50
2023-03-27T19:47:14.256Z,98330.56
2023-03-27T19:49:40.946Z,98332.66
2023-03-27T19:52:07.388Z,98342.34
2023-03-27T19:54:33.872Z,98337.28
2023-03-27T19:57:01.043Z,98339.81
2023-03-27T19:59:30.740Z,98330.97
2023-03-27T20:01:58.360Z,98345.28
2023-03-27T20:04:25.152Z,98341.09
2023-03-27T20:06:51.705Z,98342.72
2023-03-27T20:09:18.163Z,98346.25
2023-03-27T20:11:44.685Z,98350.03
2023-03-27T20:14:11.571Z,98351.53
2023-03-27T20:16:38.767Z,98343.78
2023-03-27T20:19:05.839Z,98361.06
2023-03-27T20:21:35.286Z,98365.72
2023-03-27T20:24:02.191Z,98367.94
2023-03-27T20:26:29.004Z,98368.22
2023-03-27T20:28:56.533Z,98367.97
2023-03-27T20:31:23.129Z,98370.09
2023-03-27T20:33:49.640Z,98381.56
2023-03-27T20:36:16.162Z,98381.38
2023-03-27T20:38:42.691Z,98385.06
2023-03-27T20:41:09.178Z,98387.66
2023-03-27T20:43:35.635Z,98380.22
2023-03-27T20:46:03.554Z,98385.75
2023-03-27T20:48:31.910Z,98382.59
2023-03-27T20:50:58.411Z,98382.69
2023-03-27T20:53:25.806Z,98378.84
2023-03-27T20:55:59.853Z,98389.56
2023-03-27T20:58:27.251Z,98389.78
2023-03-27T21:00:54.487Z,98397.91
2023-03-27T21:03:21.146Z,98394.53
2023-03-27T21:05:47.896Z,98405.41
2023-03-27T21:08:15.172Z,98404.34
2023-03-27T21:10:41.872Z,98408.28
2023-03-27T21:13:08.363Z,98407.63
2023-03-27T21:15:35.061Z,98419.31
2023-03-27T21:18:02.082Z,98422.44
2023-03-27T21:20:28.652Z,98424.22
2023-03-27T21:22:55.139Z,98427.44
2023-03-27T21:25:22.410Z,98447.03
2023-03-27T21:27:49.224Z,98431.59
2023-03-27T21:30:16.587Z,98424.44
2023-03-27T21:32:43.388Z,98428.03
2023-03-27T21:35:10.032Z,98426.13
2023-03-27T21:37:36.517Z,98422.91
2023-03-27T21:40:03.132Z,98426.69
2023-03-27T21:42:29.908Z,98424.50
2023-03-27T21:44:57.350Z,98418.53
2023-03-27T21:47:29.575Z,98425.22
2023-03-27T21:50:00.995Z,98430.09
2023-03-27T21:52:27.588Z,98426.59
2023-03-27T21:55:02.953Z,98431.47
2023-03-27T21:57:31.118Z,98446.03
2023-03-27T21:59:57.788Z,98432.13
2023-03-27T22:02:24.281Z,98429.88
2023-03-27T22:04:50.945Z,98428.59
2023-03-27T22:07:17.508Z,98433.94
2023-03-27T22:09:44.346Z,98442.81
2023-03-27T22:12:11.037Z,98438.44
2023-03-27T22:14:37.908Z,98442.13
2023-03-27T22:17:04.982Z,98450.66
2023-03-27T22:19:31.627Z,98443.84
2023-03-27T22:21:59.613Z,98448.22
2023-03-27T22:24:26.174Z,98453.00
2023-03-27T22:26:52.761Z,98444.31
2023-03-27T22:29:19.241Z,98447.31
2023-03-27T22:31:45.770Z,98451.69
2023-03-27T22:34:12.604Z,98460.16
2023-03-27T22:36:39.177Z,98458.25
2023-03-27T22:39:05.692Z,98458.53
2023-03-27T22:41:32.344Z,98449.31
2023-03-27T22:44:01.044Z,98455.41
2023-03-27T22:46:27.639Z,98453.38
2023-03-27T22:48:55.846Z,98458.41
2023-03-27T22:51:23.226Z,98457.50
2023-03-27T22:53:49.816Z,98462.09
2023-03-27T22:56:16.380Z,98462.19
2023-03-27T22:58:42.864Z,98466.78
2023-03-27T23:01:09.674Z,98462.91
2023-03-27T23:03:36.462Z,98470.66
2023-03-27T23:06:03.315Z,98484.59
2023-03-27T23:08:30.257Z,98477.78
2023-03-27T23:10:58.778Z,98475.88
2023-03-27T23:13:27.294Z,98480.09
2023-03-27T23:15:54.874Z,98477.50
2023-03-27T23:18:22.113Z,98479.41
2023-03-27T23:20:52.485Z,98478.75
2023-03-27T23:23:19.023Z,98481.22
2023-03-27T23:28:11.943Z,98489.41
2023-03-27T23:30:38.418Z,98481.34
2023-03-27T23:33:05.001Z,98481.00
2023-03-27T23:35:31.640Z,98484.75
2023-03-27T23:37:58.134Z,98490.06
2023-03-27T23:40:24.655Z,98494.59
2023-03-27T23:42:51.112Z,98495.38
2023-03-27T23:45:17.670Z,98490.88
2023-03-27T23:47:44.162Z,98493.97
2023-03-27T23:50:10.824Z,98495.91
2023-03-27T23:52:37.305Z,98493.31
2023-03-27T23:55:04.046Z,98487.81
2023-03-27T23:57:30.493Z,98491.47
2023-03-27T23:59:56.937Z,98502.38
